sensor_id;sensor_type;location;lat;lon;timestamp;temperature;humidity
72772;SHT30;60894;42.544;1.516;2024-03-29T00:00:36;8.67;88.98
72772;SHT30;60894;42.544;1.516;2024-03-29T00:03:03;8.71;89.01
72772;SHT30;60894;42.544;1.516;2024-03-29T00:05:29;8.77;88.16
72772;SHT30;60894;42.544;1.516;2024-03-29T00:07:55;8.78;88.28
72772;SHT30;60894;42.544;1.516;2024-03-29T00:10:21;8.80;88.51
72772;SHT30;60894;42.544;1.516;2024-03-29T00:12:49;8.74;88.90
72772;SHT30;60894;42.544;1.516;2024-03-29T00:15:15;8.80;88.20
72772;SHT30;60894;42.544;1.516;2024-03-29T00:17:41;8.78;87.99
72772;SHT30;60894;42.544;1.516;2024-03-29T00:20:07;8.72;89.48
72772;SHT30;60894;42.544;1.516;2024-03-29T00:22:33;8.71;89.44
72772;SHT30;60894;42.544;1.516;2024-03-29T00:25:00;8.75;88.66
72772;SHT30;60894;42.544;1.516;2024-03-29T00:27:26;8.71;89.11
72772;SHT30;60894;42.544;1.516;2024-03-29T00:29:53;8.70;89.30
72772;SHT30;60894;42.544;1.516;2024-03-29T00:32:20;8.72;89.18
72772;SHT30;60894;42.544;1.516;2024-03-29T00:34:46;8.67;90.33
72772;SHT30;60894;42.544;1.516;2024-03-29T00:37:12;8.60;89.47
72772;SHT30;60894;42.544;1.516;2024-03-29T00:39:38;8.61;90.36
72772;SHT30;60894;42.544;1.516;2024-03-29T00:42:04;8.64;90.01
72772;SHT30;60894;42.544;1.516;2024-03-29T00:44:30;8.65;89.75
72772;SHT30;60894;42.544;1.516;2024-03-29T00:46:58;8.64;90.04
72772;SHT30;60894;42.544;1.516;2024-03-29T00:49:24;8.63;90.45
72772;SHT30;60894;42.544;1.516;2024-03-29T00:51:50;8.57;90.32
72772;SHT30;60894;42.544;1.516;2024-03-29T00:54:16;8.61;90.05
72772;SHT30;60894;42.544;1.516;2024-03-29T00:56:42;8.63;91.20
72772;SHT30;60894;42.544;1.516;2024-03-29T00:59:08;8.59;90.21
72772;SHT30;60894;42.544;1.516;2024-03-29T01:01:34;8.56;90.91
72772;SHT30;60894;42.544;1.516;2024-03-29T01:04:02;8.63;90.55
72772;SHT30;60894;42.544;1.516;2024-03-29T01:06:28;8.68;89.73
72772;SHT30;60894;42.544;1.516;2024-03-29T01:08:54;8.64;90.74
72772;SHT30;60894;42.544;1.516;2024-03-29T01:11:20;8.57;91.40
72772;SHT30;60894;42.544;1.516;2024-03-29T01:13:45;8.56;90.64
72772;SHT30;60894;42.544;1.516;2024-03-29T01:16:12;8.60;90.88
72772;SHT30;60894;42.544;1.516;2024-03-29T01:18:38;8.61;91.32
72772;SHT30;60894;42.544;1.516;2024-03-29T01:21:05;8.67;90.13
72772;SHT30;60894;42.544;1.516;2024-03-29T01:23:31;8.68;90.07
72772;SHT30;60894;42.544;1.516;2024-03-29T01:25:57;8.63;90.24
72772;SHT30;60894;42.544;1.516;2024-03-29T01:28:23;8.74;89.88
72772;SHT30;60894;42.544;1.516;2024-03-29T01:30:52;8.75;89.11
72772;SHT30;60894;42.544;1.516;2024-03-29T01:33:19;8.65;89.86
72772;SHT30;60894;42.544;1.516;2024-03-29T01:35:45;8.68;90.46
72772;SHT30;60894;42.544;1.516;2024-03-29T01:38:12;8.71;89.36
72772;SHT30;60894;42.544;1.516;2024-03-29T01:40:38;8.78;88.65
72772;SHT30;60894;42.544;1.516;2024-03-29T01:43:04;8.75;90.27
72772;SHT30;60894;42.544;1.516;2024-03-29T01:45:31;8.78;89.39
72772;SHT30;60894;42.544;1.516;2024-03-29T01:47:58;8.82;88.41
72772;SHT30;60894;42.544;1.516;2024-03-29T01:50:25;8.77;89.60
72772;SHT30;60894;42.544;1.516;2024-03-29T01:52:52;8.91;88.27
72772;SHT30;60894;42.544;1.516;2024-03-29T01:55:21;9.00;87.95
72772;SHT30;60894;42.544;1.516;2024-03-29T01:57:49;9.00;88.03
72772;SHT30;60894;42.544;1.516;2024-03-29T02:00:20;9.02;87.44
72772;SHT30;60894;42.544;1.516;2024-03-29T02:02:47;9.05;87.06
72772;SHT30;60894;42.544;1.516;2024-03-29T02:05:14;9.11;87.36
72772;SHT30;60894;42.544;1.516;2024-03-29T02:07:41;9.12;85.56
72772;SHT30;60894;42.544;1.516;2024-03-29T02:10:11;9.16;86.26
72772;SHT30;60894;42.544;1.516;2024-03-29T02:12:40;9.10;86.86
72772;SHT30;60894;42.544;1.516;2024-03-29T02:15:08;8.98;87.70
72772;SHT30;60894;42.544;1.516;2024-03-29T02:17:35;8.91;88.61
72772;SHT30;60894;42.544;1.516;2024-03-29T02:20:02;8.84;89.44
72772;SHT30;60894;42.544;1.516;2024-03-29T02:22:30;8.95;87.81
72772;SHT30;60894;42.544;1.516;2024-03-29T02:25:00;8.92;88.12
72772;SHT30;60894;42.544;1.516;2024-03-29T02:27:27;8.84;89.44
72772;SHT30;60894;42.544;1.516;2024-03-29T02:29:54;8.71;90.95
72772;SHT30;60894;42.544;1.516;2024-03-29T02:32:21;8.71;90.40
72772;SHT30;60894;42.544;1.516;2024-03-29T02:34:48;8.87;90.69
72772;SHT30;60894;42.544;1.516;2024-03-29T02:37:15;8.67;92.00
72772;SHT30;60894;42.544;1.516;2024-03-29T02:39:42;8.78;92.39
72772;SHT30;60894;42.544;1.516;2024-03-29T02:42:11;8.60;93.62
72772;SHT30;60894;42.544;1.516;2024-03-29T02:44:38;8.56;92.41
72772;SHT30;60894;42.544;1.516;2024-03-29T02:47:05;8.60;92.26
72772;SHT30;60894;42.544;1.516;2024-03-29T02:49:32;8.47;92.88
72772;SHT30;60894;42.544;1.516;2024-03-29T02:51:58;8.46;93.26
72772;SHT30;60894;42.544;1.516;2024-03-29T02:54:25;8.41;94.59
72772;SHT30;60894;42.544;1.516;2024-03-29T02:56:51;8.47;93.64
72772;SHT30;60894;42.544;1.516;2024-03-29T02:59:19;8.59;92.00
72772;SHT30;60894;42.544;1.516;2024-03-29T03:01:45;8.75;90.37
72772;SHT30;60894;42.544;1.516;2024-03-29T03:04:12;8.84;89.44
72772;SHT30;60894;42.544;1.516;2024-03-29T03:06:38;8.91;88.81
72772;SHT30;60894;42.544;1.516;2024-03-29T03:09:05;8.97;88.97
72772;SHT30;60894;42.544;1.516;2024-03-29T03:11:50;8.91;89.20
72772;SHT30;60894;42.544;1.516;2024-03-29T03:14:19;8.97;88.35
72772;SHT30;60894;42.544;1.516;2024-03-29T03:16:46;9.01;87.47
72772;SHT30;60894;42.544;1.516;2024-03-29T03:19:13;9.04;88.37
72772;SHT30;60894;42.544;1.516;2024-03-29T03:21:39;9.12;86.41
72772;SHT30;60894;42.544;1.516;2024-03-29T03:24:07;9.19;86.48
72772;SHT30;60894;42.544;1.516;2024-03-29T03:26:32;9.14;87.05
72772;SHT30;60894;42.544;1.516;2024-03-29T03:28:59;9.23;85.63
72772;SHT30;60894;42.544;1.516;2024-03-29T03:31:28;9.33;85.05
72772;SHT30;60894;42.544;1.516;2024-03-29T03:33:54;9.33;85.90
72772;SHT30;60894;42.544;1.516;2024-03-29T03:36:21;9.16;86.51
72772;SHT30;60894;42.544;1.516;2024-03-29T03:38:49;9.14;86.49
72772;SHT30;60894;42.544;1.516;2024-03-29T03:41:15;8.89;89.13
72772;SHT30;60894;42.544;1.516;2024-03-29T03:43:41;8.97;89.58
72772;SHT30;60894;42.544;1.516;2024-03-29T03:46:08;8.88;89.80
72772;SHT30;60894;42.544;1.516;2024-03-29T03:48:36;8.91;90.18
72772;SHT30;60894;42.544;1.516;2024-03-29T03:51:03;8.82;90.78
72772;SHT30;60894;42.544;1.516;2024-03-29T03:53:29;8.75;90.30
72772;SHT30;60894;42.544;1.516;2024-03-29T03:55:56;8.77;90.20
72772;SHT30;60894;42.544;1.516;2024-03-29T03:58:22;8.98;88.70
72772;SHT30;60894;42.544;1.516;2024-03-29T04:00:49;8.91;88.74
72772;SHT30;60894;42.544;1.516;2024-03-29T04:03:15;9.07;86.29
72772;SHT30;60894;42.544;1.516;2024-03-29T04:05:44;9.21;85.06
72772;SHT30;60894;42.544;1.516;2024-03-29T04:08:10;9.29;84.46
72772;SHT30;60894;42.544;1.516;2024-03-29T04:10:38;9.33;82.41
72772;SHT30;60894;42.544;1.516;2024-03-29T04:13:04;9.28;84.60
72772;SHT30;60894;42.544;1.516;2024-03-29T04:15:31;9.16;86.44
72772;SHT30;60894;42.544;1.516;2024-03-29T04:17:59;9.19;86.00
72772;SHT30;60894;42.544;1.516;2024-03-29T04:20:26;9.22;85.45
72772;SHT30;60894;42.544;1.516;2024-03-29T04:22:53;9.12;84.28
72772;SHT30;60894;42.544;1.516;2024-03-29T04:25:20;9.00;87.62
72772;SHT30;60894;42.544;1.516;2024-03-29T04:27:46;9.04;86.78
72772;SHT30;60894;42.544;1.516;2024-03-29T04:30:13;9.04;87.62
72772;SHT30;60894;42.544;1.516;2024-03-29T04:32:39;8.82;87.67
72772;SHT30;60894;42.544;1.516;2024-03-29T04:35:07;8.98;85.47
72772;SHT30;60894;42.544;1.516;2024-03-29T04:37:33;9.01;86.52
72772;SHT30;60894;42.544;1.516;2024-03-29T04:40:01;9.07;84.89
72772;SHT30;60894;42.544;1.516;2024-03-29T04:42:29;9.14;84.59
72772;SHT30;60894;42.544;1.516;2024-03-29T04:44:56;9.10;84.56
72772;SHT30;60894;42.544;1.516;2024-03-29T04:47:23;9.15;83.56
72772;SHT30;60894;42.544;1.516;2024-03-29T04:49:50;9.29;80.84
72772;SHT30;60894;42.544;1.516;2024-03-29T04:52:17;9.40;79.65
72772;SHT30;60894;42.544;1.516;2024-03-29T04:54:44;9.40;81.34
72772;SHT30;60894;42.544;1.516;2024-03-29T04:57:12;9.21;82.93
72772;SHT30;60894;42.544;1.516;2024-03-29T04:59:39;9.25;80.95
72772;SHT30;60894;42.544;1.516;2024-03-29T05:02:07;9.33;81.79
72772;SHT30;60894;42.544;1.516;2024-03-29T05:04:34;9.32;82.15
72772;SHT30;60894;42.544;1.516;2024-03-29T05:07:00;9.14;83.32
72772;SHT30;60894;42.544;1.516;2024-03-29T05:09:28;9.29;80.75
72772;SHT30;60894;42.544;1.516;2024-03-29T05:11:55;9.39;80.79
72772;SHT30;60894;42.544;1.516;2024-03-29T05:14:23;9.33;81.42
72772;SHT30;60894;42.544;1.516;2024-03-29T05:16:50;9.33;81.43
72772;SHT30;60894;42.544;1.516;2024-03-29T05:19:18;9.52;77.00
72772;SHT30;60894;42.544;1.516;2024-03-29T05:21:45;9.35;79.47
72772;SHT30;60894;42.544;1.516;2024-03-29T05:24:12;9.36;80.46
72772;SHT30;60894;42.544;1.516;2024-03-29T05:26:39;9.33;80.35
72772;SHT30;60894;42.544;1.516;2024-03-29T05:29:06;9.28;79.92
72772;SHT30;60894;42.544;1.516;2024-03-29T05:31:35;9.32;79.69
72772;SHT30;60894;42.544;1.516;2024-03-29T05:34:02;9.35;79.99
72772;SHT30;60894;42.544;1.516;2024-03-29T05:36:30;9.42;79.24
72772;SHT30;60894;42.544;1.516;2024-03-29T05:38:57;9.56;78.07
72772;SHT30;60894;42.544;1.516;2024-03-29T05:41:24;9.44;79.20
72772;SHT30;60894;42.544;1.516;2024-03-29T05:43:50;9.33;80.19
72772;SHT30;60894;42.544;1.516;2024-03-29T05:46:17;9.33;80.27
72772;SHT30;60894;42.544;1.516;2024-03-29T05:48:46;9.40;77.37
72772;SHT30;60894;42.544;1.516;2024-03-29T05:51:12;9.07;81.74
72772;SHT30;60894;42.544;1.516;2024-03-29T05:53:40;9.15;81.59
72772;SHT30;60894;42.544;1.516;2024-03-29T05:56:07;9.15;80.65
72772;SHT30;60894;42.544;1.516;2024-03-29T05:58:34;9.25;81.85
72772;SHT30;60894;42.544;1.516;2024-03-29T06:01:01;9.18;81.43
72772;SHT30;60894;42.544;1.516;2024-03-29T06:03:28;9.15;80.81
72772;SHT30;60894;42.544;1.516;2024-03-29T06:05:56;9.35;77.89
72772;SHT30;60894;42.544;1.516;2024-03-29T06:08:24;9.21;80.56
72772;SHT30;60894;42.544;1.516;2024-03-29T06:10:52;9.29;81.49
72772;SHT30;60894;42.544;1.516;2024-03-29T06:13:20;9.53;77.89
72772;SHT30;60894;42.544;1.516;2024-03-29T06:16:15;9.57;78.75
72772;SHT30;60894;42.544;1.516;2024-03-29T06:18:59;9.42;80.64
72772;SHT30;60894;42.544;1.516;2024-03-29T06:21:28;9.25;82.19
72772;SHT30;60894;42.544;1.516;2024-03-29T06:23:58;9.43;80.84
72772;SHT30;60894;42.544;1.516;2024-03-29T06:26:25;9.53;80.88
72772;SHT30;60894;42.544;1.516;2024-03-29T06:28:52;9.52;80.26
72772;SHT30;60894;42.544;1.516;2024-03-29T06:31:19;9.56;81.02
72772;SHT30;60894;42.544;1.516;2024-03-29T06:33:46;9.70;79.33
72772;SHT30;60894;42.544;1.516;2024-03-29T06:36:13;9.69;79.80
72772;SHT30;60894;42.544;1.516;2024-03-29T06:38:41;9.72;80.18
72772;SHT30;60894;42.544;1.516;2024-03-29T06:41:08;9.72;80.43
72772;SHT30;60894;42.544;1.516;2024-03-29T06:43:35;9.77;80.03
72772;SHT30;60894;42.544;1.516;2024-03-29T06:46:02;9.79;79.53
72772;SHT30;60894;42.544;1.516;2024-03-29T06:48:29;9.86;79.48
72772;SHT30;60894;42.544;1.516;2024-03-29T06:50:56;9.86;79.75
72772;SHT30;60894;42.544;1.516;2024-03-29T06:53:24;10.00;78.08
72772;SHT30;60894;42.544;1.516;2024-03-29T06:55:54;10.05;77.00
72772;SHT30;60894;42.544;1.516;2024-03-29T06:58:21;10.14;77.03
72772;SHT30;60894;42.544;1.516;2024-03-29T07:00:49;10.27;74.80
72772;SHT30;60894;42.544;1.516;2024-03-29T07:03:18;10.20;77.23
72772;SHT30;60894;42.544;1.516;2024-03-29T07:05:46;10.17;77.16
72772;SHT30;60894;42.544;1.516;2024-03-29T07:08:13;10.37;75.56
72772;SHT30;60894;42.544;1.516;2024-03-29T07:10:40;10.31;76.72
72772;SHT30;60894;42.544;1.516;2024-03-29T07:13:08;10.37;76.17
72772;SHT30;60894;42.544;1.516;2024-03-29T07:15:36;10.61;74.89
72772;SHT30;60894;42.544;1.516;2024-03-29T07:18:03;10.63;74.28
72772;SHT30;60894;42.544;1.516;2024-03-29T07:20:30;10.68;74.36
72772;SHT30;60894;42.544;1.516;2024-03-29T07:22:57;10.75;74.21
72772;SHT30;60894;42.544;1.516;2024-03-29T07:25:25;10.76;76.01
72772;SHT30;60894;42.544;1.516;2024-03-29T07:27:52;10.80;74.20
72772;SHT30;60894;42.544;1.516;2024-03-29T07:30:21;10.83;74.81
72772;SHT30;60894;42.544;1.516;2024-03-29T07:32:48;10.76;74.39
72772;SHT30;60894;42.544;1.516;2024-03-29T07:35:15;10.80;74.13
72772;SHT30;60894;42.544;1.516;2024-03-29T07:37:44;10.91;72.83
72772;SHT30;60894;42.544;1.516;2024-03-29T07:40:13;10.89;74.24
72772;SHT30;60894;42.544;1.516;2024-03-29T07:42:40;10.85;74.84
72772;SHT30;60894;42.544;1.516;2024-03-29T07:45:08;10.82;74.66
72772;SHT30;60894;42.544;1.516;2024-03-29T07:47:36;10.79;75.04
72772;SHT30;60894;42.544;1.516;2024-03-29T07:50:04;10.72;74.96
72772;SHT30;60894;42.544;1.516;2024-03-29T07:52:32;10.59;75.97
72772;SHT30;60894;42.544;1.516;2024-03-29T07:54:59;10.68;75.47
72772;SHT30;60894;42.544;1.516;2024-03-29T07:57:26;10.73;74.97
72772;SHT30;60894;42.544;1.516;2024-03-29T07:59:53;10.73;75.09
72772;SHT30;60894;42.544;1.516;2024-03-29T08:02:20;10.85;73.31
72772;SHT30;60894;42.544;1.516;2024-03-29T08:04:52;10.83;74.74
72772;SHT30;60894;42.544;1.516;2024-03-29T08:07:19;10.88;72.89
72772;SHT30;60894;42.544;1.516;2024-03-29T08:09:46;10.82;73.60
72772;SHT30;60894;42.544;1.516;2024-03-29T08:12:13;10.83;73.01
72772;SHT30;60894;42.544;1.516;2024-03-29T08:14:40;10.92;73.80
72772;SHT30;60894;42.544;1.516;2024-03-29T08:17:09;10.83;73.49
72772;SHT30;60894;42.544;1.516;2024-03-29T08:19:36;10.85;74.54
72772;SHT30;60894;42.544;1.516;2024-03-29T08:22:08;10.88;74.00
72772;SHT30;60894;42.544;1.516;2024-03-29T08:24:36;10.91;74.23
72772;SHT30;60894;42.544;1.516;2024-03-29T08:27:03;10.88;75.25
72772;SHT30;60894;42.544;1.516;2024-03-29T08:29:30;10.95;72.07
72772;SHT30;60894;42.544;1.516;2024-03-29T08:31:57;11.04;74.13
72772;SHT30;60894;42.544;1.516;2024-03-29T08:34:24;11.16;74.06
72772;SHT30;60894;42.544;1.516;2024-03-29T08:36:53;11.27;73.17
72772;SHT30;60894;42.544;1.516;2024-03-29T08:39:23;11.40;73.08
72772;SHT30;60894;42.544;1.516;2024-03-29T08:41:50;11.38;73.27
72772;SHT30;60894;42.544;1.516;2024-03-29T08:44:17;11.45;73.81
72772;SHT30;60894;42.544;1.516;2024-03-29T08:46:44;11.44;73.46
72772;SHT30;60894;42.544;1.516;2024-03-29T08:49:11;11.28;72.63
72772;SHT30;60894;42.544;1.516;2024-03-29T08:51:38;11.23;72.89
72772;SHT30;60894;42.544;1.516;2024-03-29T08:54:05;11.26;72.81
72772;SHT30;60894;42.544;1.516;2024-03-29T08:56:34;11.33;72.98
72772;SHT30;60894;42.544;1.516;2024-03-29T08:59:03;11.13;73.26
72772;SHT30;60894;42.544;1.516;2024-03-29T09:01:33;11.12;73.24
72772;SHT30;60894;42.544;1.516;2024-03-29T09:04:01;11.09;73.01
72772;SHT30;60894;42.544;1.516;2024-03-29T09:06:30;11.16;73.08
72772;SHT30;60894;42.544;1.516;2024-03-29T09:08:57;11.12;73.33
72772;SHT30;60894;42.544;1.516;2024-03-29T09:11:23;11.02;74.67
72772;SHT30;60894;42.544;1.516;2024-03-29T09:13:52;10.86;75.19
72772;SHT30;60894;42.544;1.516;2024-03-29T09:16:19;10.83;75.82
72772;SHT30;60894;42.544;1.516;2024-03-29T09:18:46;10.79;75.59
72772;SHT30;60894;42.544;1.516;2024-03-29T09:21:13;10.72;75.70
72772;SHT30;60894;42.544;1.516;2024-03-29T09:23:40;10.65;76.14
72772;SHT30;60894;42.544;1.516;2024-03-29T09:26:07;10.45;76.98
72772;SHT30;60894;42.544;1.516;2024-03-29T09:28:35;10.48;77.31
72772;SHT30;60894;42.544;1.516;2024-03-29T09:31:04;10.54;76.12
72772;SHT30;60894;42.544;1.516;2024-03-29T09:33:31;10.49;75.14
72772;SHT30;60894;42.544;1.516;2024-03-29T09:35:58;10.54;74.86
72772;SHT30;60894;42.544;1.516;2024-03-29T09:38:25;10.54;73.87
72772;SHT30;60894;42.544;1.516;2024-03-29T09:41:01;10.51;75.08
72772;SHT30;60894;42.544;1.516;2024-03-29T09:43:30;10.41;75.44
72772;SHT30;60894;42.544;1.516;2024-03-29T09:45:58;10.44;75.67
72772;SHT30;60894;42.544;1.516;2024-03-29T09:48:28;10.40;75.77
72772;SHT30;60894;42.544;1.516;2024-03-29T09:51:03;10.45;74.89
72772;SHT30;60894;42.544;1.516;2024-03-29T09:53:31;10.41;74.88
72772;SHT30;60894;42.544;1.516;2024-03-29T09:56:00;10.42;75.83
72772;SHT30;60894;42.544;1.516;2024-03-29T09:58:28;10.40;75.39
72772;SHT30;60894;42.544;1.516;2024-03-29T10:00:55;10.48;75.34
72772;SHT30;60894;42.544;1.516;2024-03-29T10:03:23;10.52;74.98
72772;SHT30;60894;42.544;1.516;2024-03-29T10:05:56;10.68;75.48
72772;SHT30;60894;42.544;1.516;2024-03-29T10:08:25;10.75;74.49
72772;SHT30;60894;42.544;1.516;2024-03-29T10:10:53;10.73;74.58
72772;SHT30;60894;42.544;1.516;2024-03-29T10:13:20;10.68;74.78
72772;SHT30;60894;42.544;1.516;2024-03-29T10:15:49;10.56;73.79
72772;SHT30;60894;42.544;1.516;2024-03-29T10:18:17;10.63;74.82
72772;SHT30;60894;42.544;1.516;2024-03-29T10:20:45;10.75;72.33
72772;SHT30;60894;42.544;1.516;2024-03-29T10:23:14;10.79;72.40
72772;SHT30;60894;42.544;1.516;2024-03-29T10:25:43;10.88;72.30
72772;SHT30;60894;42.544;1.516;2024-03-29T10:28:11;11.02;72.44
72772;SHT30;60894;42.544;1.516;2024-03-29T10:30:38;11.23;72.94
72772;SHT30;60894;42.544;1.516;2024-03-29T10:33:05;11.24;73.21
72772;SHT30;60894;42.544;1.516;2024-03-29T10:35:32;11.30;71.92
72772;SHT30;60894;42.544;1.516;2024-03-29T10:38:02;11.53;72.41
72772;SHT30;60894;42.544;1.516;2024-03-29T10:40:30;11.64;70.52
72772;SHT30;60894;42.544;1.516;2024-03-29T10:42:58;11.78;70.89
72772;SHT30;60894;42.544;1.516;2024-03-29T10:45:30;12.08;70.31
72772;SHT30;60894;42.544;1.516;2024-03-29T10:47:58;11.98;68.27
72772;SHT30;60894;42.544;1.516;2024-03-29T10:50:27;11.96;68.54
72772;SHT30;60894;42.544;1.516;2024-03-29T10:52:56;11.82;70.13
72772;SHT30;60894;42.544;1.516;2024-03-29T10:55:27;11.75;69.24
72772;SHT30;60894;42.544;1.516;2024-03-29T10:57:57;11.73;69.69
72772;SHT30;60894;42.544;1.516;2024-03-29T11:00:25;11.84;69.61
72772;SHT30;60894;42.544;1.516;2024-03-29T11:03:09;12.15;68.48
72772;SHT30;60894;42.544;1.516;2024-03-29T11:05:44;12.15;67.58
72772;SHT30;60894;42.544;1.516;2024-03-29T11:08:14;12.12;67.45
72772;SHT30;60894;42.544;1.516;2024-03-29T11:10:45;12.19;67.94
72772;SHT30;60894;42.544;1.516;2024-03-29T11:13:21;12.12;68.68
72772;SHT30;60894;42.544;1.516;2024-03-29T11:15:49;12.12;68.00
72772;SHT30;60894;42.544;1.516;2024-03-29T11:18:17;12.01;68.11
72772;SHT30;60894;42.544;1.516;2024-03-29T11:20:46;12.21;68.24
72772;SHT30;60894;42.544;1.516;2024-03-29T11:23:17;12.14;67.70
72772;SHT30;60894;42.544;1.516;2024-03-29T11:25:48;12.16;67.29
72772;SHT30;60894;42.544;1.516;2024-03-29T11:28:23;11.96;66.96
72772;SHT30;60894;42.544;1.516;2024-03-29T11:30:52;11.98;68.94
72772;SHT30;60894;42.544;1.516;2024-03-29T11:33:30;12.05;68.09
72772;SHT30;60894;42.544;1.516;2024-03-29T11:35:57;12.04;68.27
72772;SHT30;60894;42.544;1.516;2024-03-29T11:38:34;12.14;67.86
72772;SHT30;60894;42.544;1.516;2024-03-29T11:41:06;12.21;67.01
72772;SHT30;60894;42.544;1.516;2024-03-29T11:43:35;12.23;66.86
72772;SHT30;60894;42.544;1.516;2024-03-29T11:46:05;12.15;67.47
72772;SHT30;60894;42.544;1.516;2024-03-29T11:48:33;12.36;67.10
72772;SHT30;60894;42.544;1.516;2024-03-29T11:51:02;12.52;65.96
72772;SHT30;60894;42.544;1.516;2024-03-29T11:53:30;12.59;66.41
72772;SHT30;60894;42.544;1.516;2024-03-29T11:55:57;12.59;65.03
72772;SHT30;60894;42.544;1.516;2024-03-29T11:58:25;12.77;64.63
72772;SHT30;60894;42.544;1.516;2024-03-29T12:00:55;12.88;63.62
72772;SHT30;60894;42.544;1.516;2024-03-29T12:03:23;13.03;63.75
72772;SHT30;60894;42.544;1.516;2024-03-29T12:05:51;13.12;63.15
72772;SHT30;60894;42.544;1.516;2024-03-29T12:08:21;13.10;63.28
72772;SHT30;60894;42.544;1.516;2024-03-29T12:10:49;13.01;63.83
72772;SHT30;60894;42.544;1.516;2024-03-29T12:13:17;12.94;64.11
72772;SHT30;60894;42.544;1.516;2024-03-29T12:15:44;12.93;63.97
72772;SHT30;60894;42.544;1.516;2024-03-29T12:18:12;12.74;63.62
72772;SHT30;60894;42.544;1.516;2024-03-29T12:20:42;12.63;64.54
72772;SHT30;60894;42.544;1.516;2024-03-29T12:23:12;12.55;63.76
72772;SHT30;60894;42.544;1.516;2024-03-29T12:25:40;12.57;64.31
72772;SHT30;60894;42.544;1.516;2024-03-29T12:28:07;12.60;63.74
72772;SHT30;60894;42.544;1.516;2024-03-29T12:30:34;12.81;63.31
72772;SHT30;60894;42.544;1.516;2024-03-29T12:33:02;13.00;63.11
72772;SHT30;60894;42.544;1.516;2024-03-29T12:35:31;12.83;63.16
72772;SHT30;60894;42.544;1.516;2024-03-29T12:37:58;12.81;61.49
72772;SHT30;60894;42.544;1.516;2024-03-29T12:40:26;12.57;63.57
72772;SHT30;60894;42.544;1.516;2024-03-29T12:42:56;12.73;64.26
72772;SHT30;60894;42.544;1.516;2024-03-29T12:45:23;12.83;62.92
72772;SHT30;60894;42.544;1.516;2024-03-29T12:47:51;12.93;62.56
72772;SHT30;60894;42.544;1.516;2024-03-29T12:50:25;13.08;60.73
72772;SHT30;60894;42.544;1.516;2024-03-29T12:52:56;13.11;62.97
72772;SHT30;60894;42.544;1.516;2024-03-29T12:55:24;13.25;62.50
72772;SHT30;60894;42.544;1.516;2024-03-29T12:57:54;13.31;61.77
72772;SHT30;60894;42.544;1.516;2024-03-29T13:00:21;13.56;59.62
72772;SHT30;60894;42.544;1.516;2024-03-29T13:02:49;13.72;59.22
72772;SHT30;60894;42.544;1.516;2024-03-29T13:05:16;13.80;60.38
72772;SHT30;60894;42.544;1.516;2024-03-29T13:07:43;13.75;62.00
72772;SHT30;60894;42.544;1.516;2024-03-29T13:10:12;13.48;55.23
72772;SHT30;60894;42.544;1.516;2024-03-29T13:12:40;13.24;55.72
72772;SHT30;60894;42.544;1.516;2024-03-29T13:15:16;13.44;55.43
72772;SHT30;60894;42.544;1.516;2024-03-29T13:17:44;13.27;55.22
72772;SHT30;60894;42.544;1.516;2024-03-29T13:20:12;13.17;53.80
72772;SHT30;60894;42.544;1.516;2024-03-29T13:22:39;13.11;52.84
72772;SHT30;60894;42.544;1.516;2024-03-29T13:25:08;13.01;55.64
72772;SHT30;60894;42.544;1.516;2024-03-29T13:27:38;13.07;57.10
72772;SHT30;60894;42.544;1.516;2024-03-29T13:30:07;13.25;57.55
72772;SHT30;60894;42.544;1.516;2024-03-29T13:32:35;13.11;58.81
72772;SHT30;60894;42.544;1.516;2024-03-29T13:35:03;13.39;59.86
72772;SHT30;60894;42.544;1.516;2024-03-29T13:37:31;13.31;57.61
72772;SHT30;60894;42.544;1.516;2024-03-29T13:39:58;13.31;58.37
72772;SHT30;60894;42.544;1.516;2024-03-29T13:42:25;13.42;57.03
72772;SHT30;60894;42.544;1.516;2024-03-29T13:44:54;13.45;55.52
72772;SHT30;60894;42.544;1.516;2024-03-29T13:47:21;13.46;56.89
72772;SHT30;60894;42.544;1.516;2024-03-29T13:49:48;13.24;56.17
72772;SHT30;60894;42.544;1.516;2024-03-29T13:52:18;13.28;58.31
72772;SHT30;60894;42.544;1.516;2024-03-29T13:54:45;13.35;55.91
72772;SHT30;60894;42.544;1.516;2024-03-29T13:57:13;13.31;55.56
72772;SHT30;60894;42.544;1.516;2024-03-29T13:59:40;13.24;56.03
72772;SHT30;60894;42.544;1.516;2024-03-29T14:02:11;13.31;55.99
72772;SHT30;60894;42.544;1.516;2024-03-29T14:04:39;13.29;55.88
72772;SHT30;60894;42.544;1.516;2024-03-29T14:07:06;13.27;56.29
72772;SHT30;60894;42.544;1.516;2024-03-29T14:09:34;13.08;56.70
72772;SHT30;60894;42.544;1.516;2024-03-29T14:12:01;13.19;57.17
72772;SHT30;60894;42.544;1.516;2024-03-29T14:14:29;13.27;55.34
72772;SHT30;60894;42.544;1.516;2024-03-29T14:16:56;13.04;57.07
72772;SHT30;60894;42.544;1.516;2024-03-29T14:19:24;13.01;56.76
72772;SHT30;60894;42.544;1.516;2024-03-29T14:21:54;13.17;56.00
72772;SHT30;60894;42.544;1.516;2024-03-29T14:24:21;13.14;57.39
72772;SHT30;60894;42.544;1.516;2024-03-29T14:26:50;13.25;55.17
72772;SHT30;60894;42.544;1.516;2024-03-29T14:29:17;13.19;55.13
72772;SHT30;60894;42.544;1.516;2024-03-29T14:31:46;13.24;54.95
72772;SHT30;60894;42.544;1.516;2024-03-29T14:34:13;13.25;54.58
72772;SHT30;60894;42.544;1.516;2024-03-29T14:36:42;13.27;53.98
72772;SHT30;60894;42.544;1.516;2024-03-29T14:39:10;13.35;54.02
72772;SHT30;60894;42.544;1.516;2024-03-29T14:41:38;13.24;54.57
72772;SHT30;60894;42.544;1.516;2024-03-29T14:44:06;13.25;53.76
72772;SHT30;60894;42.544;1.516;2024-03-29T14:46:34;13.28;52.19
72772;SHT30;60894;42.544;1.516;2024-03-29T14:49:01;13.18;53.10
72772;SHT30;60894;42.544;1.516;2024-03-29T14:51:31;13.25;53.52
72772;SHT30;60894;42.544;1.516;2024-03-29T14:53:59;13.31;52.65
72772;SHT30;60894;42.544;1.516;2024-03-29T14:56:28;13.17;54.83
72772;SHT30;60894;42.544;1.516;2024-03-29T14:58:56;13.38;53.95
72772;SHT30;60894;42.544;1.516;2024-03-29T15:01:24;13.31;55.12
72772;SHT30;60894;42.544;1.516;2024-03-29T15:03:52;13.27;52.50
72772;SHT30;60894;42.544;1.516;2024-03-29T15:06:19;13.48;53.20
72772;SHT30;60894;42.544;1.516;2024-03-29T15:08:48;13.39;52.86
72772;SHT30;60894;42.544;1.516;2024-03-29T15:11:17;13.35;53.01
72772;SHT30;60894;42.544;1.516;2024-03-29T15:13:44;13.42;53.47
72772;SHT30;60894;42.544;1.516;2024-03-29T15:16:11;13.25;56.41
72772;SHT30;60894;42.544;1.516;2024-03-29T15:18:38;13.00;60.57
72772;SHT30;60894;42.544;1.516;2024-03-29T15:21:05;12.23;65.74
72772;SHT30;60894;42.544;1.516;2024-03-29T15:23:33;10.65;72.91
72772;SHT30;60894;42.544;1.516;2024-03-29T15:26:02;10.14;77.14
72772;SHT30;60894;42.544;1.516;2024-03-29T15:28:31;9.94;76.01
72772;SHT30;60894;42.544;1.516;2024-03-29T15:31:16;9.95;76.01
72772;SHT30;60894;42.544;1.516;2024-03-29T15:33:45;9.97;77.00
72772;SHT30;60894;42.544;1.516;2024-03-29T15:36:13;9.94;78.18
72772;SHT30;60894;42.544;1.516;2024-03-29T15:38:40;9.98;79.87
72772;SHT30;60894;42.544;1.516;2024-03-29T15:41:07;9.97;79.05